Time;durP1;ratioP1;P1;durP2;ratioP2;P2;SDS_P1;SDS_P2;PMS_P1;PMS_P2;Temp;Humidity;BMP_temperature;BMP_pressure;BME280_temperature;BME280_humidity;BME280_pressure;Samples;Min_cycle;Max_cycle;Signal;HPM_P1;HPM_P2
2022/04/07 00:01:14;;;;;;;4.90;2.15;;;;;;;;;;5071930;28;20021;-83
2022/04/07 00:03:40;;;;;;;3.35;2.05;;;;;;;;;;5071589;28;20026;-84
2022/04/07 00:06:09;;;;;;;4.68;2.70;;;;;;;;;;5053023;28;20083;-85
2022/04/07 00:08:39;;;;;;;4.13;2.35;;;;;;;;;;5071543;28;20563;-85
2022/04/07 00:11:05;;;;;;;6.03;2.67;;;;;;;;;;5052448;28;20036;-86
2022/04/07 00:13:30;;;;;;;4.72;2.72;;;;;;;;;;5071279;28;20039;-86
2022/04/07 00:15:58;;;;;;;3.85;2.33;;;;;;;;;;5053625;28;20024;-85
2022/04/07 00:18:25;;;;;;;3.70;2.10;;;;;;;;;;5054030;28;20062;-86
2022/04/07 00:20:52;;;;;;;3.45;2.53;;;;;;;;;;5075509;28;20020;-84
2022/04/07 00:23:18;;;;;;;4.10;2.40;;;;;;;;;;5075428;28;20029;-85
2022/04/07 00:25:44;;;;;;;3.70;2.30;;;;;;;;;;5057271;28;20103;-85
2022/04/07 00:28:09;;;;;;;2.75;1.95;;;;;;;;;;5057260;28;20107;-84
2022/04/07 00:30:37;;;;;;;3.75;2.40;;;;;;;;;;5056891;28;20046;-85
2022/04/07 00:33:03;;;;;;;4.63;2.28;;;;;;;;;;5056596;28;20119;-85
2022/04/07 00:35:29;;;;;;;4.53;2.00;;;;;;;;;;5056789;28;20494;-84
2022/04/07 00:37:54;;;;;;;5.22;2.60;;;;;;;;;;5056267;28;20111;-85
2022/04/07 00:40:20;;;;;;;3.47;2.38;;;;;;;;;;5056760;28;20074;-86
2022/04/07 00:42:47;;;;;;;6.75;3.08;;;;;;;;;;5056673;28;20024;-85
2022/04/07 00:45:14;;;;;;;4.18;2.88;;;;;;;;;;5056513;28;20081;-84
2022/04/07 00:47:40;;;;;;;5.88;2.50;;;;;;;;;;5074466;28;20025;-85
2022/04/07 00:50:06;;;;;;;3.28;2.10;;;;;;;;;;5074515;28;20025;-84
2022/04/07 00:52:32;;;;;;;4.40;2.50;;;;;;;;;;5056803;28;20026;-86
2022/04/07 00:54:58;;;;;;;3.25;2.50;;;;;;;;;;5054666;28;20023;-87
2022/04/07 00:57:25;;;;;;;4.43;2.70;;;;;;;;;;5056503;28;20048;-84
2022/04/07 00:59:50;;;;;;;4.22;2.65;;;;;;;;;;5056373;28;20468;-85
2022/04/07 01:02:16;;;;;;;5.60;2.53;;;;;;;;;;5074129;28;20086;-85
2022/04/07 01:04:41;;;;;;;4.53;2.08;;;;;;;;;;5056124;28;20031;-85
2022/04/07 01:07:08;;;;;;;4.03;2.90;;;;;;;;;;5074164;28;20040;-84
2022/04/07 01:09:34;;;;;;;4.35;2.67;;;;;;;;;;5055917;28;20059;-84
2022/04/07 01:12:00;;;;;;;4.63;2.58;;;;;;;;;;5055716;28;20707;-85
2022/04/07 01:14:28;;;;;;;4.43;2.55;;;;;;;;;;5056299;28;20028;-86
2022/04/07 01:16:58;;;;;;;5.28;2.30;;;;;;;;;;5074423;28;20028;-85
2022/04/07 01:19:23;;;;;;;6.25;2.75;;;;;;;;;;5074264;28;20468;-85
2022/04/07 01:21:49;;;;;;;4.35;2.83;;;;;;;;;;5056452;28;20020;-86
2022/04/07 01:24:15;;;;;;;4.78;2.92;;;;;;;;;;5074468;28;20060;-86
2022/04/07 01:26:45;;;;;;;3.30;2.30;;;;;;;;;;5074332;28;20017;-85
2022/04/07 01:29:13;;;;;;;5.53;3.10;;;;;;;;;;5053657;28;20059;-85
2022/04/07 01:31:41;;;;;;;4.45;2.80;;;;;;;;;;5073984;28;20495;-86
2022/04/07 01:34:13;;;;;;;4.00;3.08;;;;;;;;;;5056177;28;20097;-85
2022/04/07 01:36:41;;;;;;;4.57;2.55;;;;;;;;;;5055821;28;20024;-85
2022/04/07 01:39:09;;;;;;;2.70;2.25;;;;;;;;;;5055621;28;20456;-84
2022/04/07 01:41:38;;;;;;;2.95;2.40;;;;;;;;;;5073257;28;20162;-84
2022/04/07 01:44:05;;;;;;;3.40;2.50;;;;;;;;;;5073665;28;20052;-85
2022/04/07 01:46:33;;;;;;;4.97;2.47;;;;;;;;;;5055067;28;20039;-84
2022/04/07 01:48:59;;;;;;;4.55;2.42;;;;;;;;;;5073290;28;20025;-85
2022/04/07 01:51:26;;;;;;;4.57;2.65;;;;;;;;;;5055075;28;20025;-84
2022/04/07 01:53:53;;;;;;;3.60;2.50;;;;;;;;;;5054919;28;20047;-86
2022/04/07 01:56:20;;;;;;;5.80;2.72;;;;;;;;;;5054045;28;20028;-86
2022/04/07 01:58:47;;;;;;;3.70;2.20;;;;;;;;;;5055648;28;20035;-86
2022/04/07 02:01:16;;;;;;;6.10;3.45;;;;;;;;;;5072547;28;20028;-86
2022/04/07 02:03:42;;;;;;;6.25;2.92;;;;;;;;;;5073233;28;20472;-86
2022/04/07 02:06:11;;;;;;;3.63;2.80;;;;;;;;;;5054867;28;20025;-84
2022/04/07 02:08:37;;;;;;;4.43;2.33;;;;;;;;;;5055008;28;20028;-84
2022/04/07 02:11:02;;;;;;;3.22;2.50;;;;;;;;;;5054548;28;20645;-84
2022/04/07 02:13:28;;;;;;;10.13;3.15;;;;;;;;;;5054523;28;20024;-85
2022/04/07 02:15:53;;;;;;;4.07;2.50;;;;;;;;;;5072746;28;20556;-85
2022/04/07 02:18:19;;;;;;;8.23;2.80;;;;;;;;;;5087474;28;20508;-85
2022/04/07 02:20:44;;;;;;;5.85;2.80;;;;;;;;;;5072225;28;20556;-86
2022/04/07 02:23:10;;;;;;;6.63;3.05;;;;;;;;;;5072903;28;20684;-85
2022/04/07 02:25:35;;;;;;;4.38;2.63;;;;;;;;;;5054712;28;20349;-86
2022/04/07 02:28:00;;;;;;;7.82;3.08;;;;;;;;;;5054587;28;20032;-86
2022/04/07 02:30:26;;;;;;;3.53;2.65;;;;;;;;;;5054317;28;20037;-84
2022/04/07 02:32:52;;;;;;;4.78;2.63;;;;;;;;;;5070971;28;20381;-83
2022/04/07 02:35:17;;;;;;;5.40;2.90;;;;;;;;;;5071857;28;20392;-85
2022/04/07 02:37:42;;;;;;;6.50;2.25;;;;;;;;;;5072138;28;20020;-85
2022/04/07 02:40:08;;;;;;;5.03;2.38;;;;;;;;;;5053766;28;20028;-86
2022/04/07 02:42:35;;;;;;;4.32;2.83;;;;;;;;;;5053454;28;20024;-84
2022/04/07 02:45:01;;;;;;;4.63;2.80;;;;;;;;;;5072197;28;20487;-87
2022/04/07 02:47:34;;;;;;;4.50;2.60;;;;;;;;;;5054333;28;20024;-85
2022/04/07 02:50:00;;;;;;;6.35;3.90;;;;;;;;;;5071779;28;20376;-84
2022/04/07 02:52:25;;;;;;;4.00;2.90;;;;;;;;;;5054601;28;20032;-85
2022/04/07 02:54:51;;;;;;;6.50;3.53;;;;;;;;;;5070787;28;20035;-83
2022/04/07 02:57:21;;;;;;;8.45;3.58;;;;;;;;;;5053130;28;20107;-84
2022/04/07 02:59:46;;;;;;;4.40;2.60;;;;;;;;;;5052997;28;20016;-84
2022/04/07 03:02:12;;;;;;;3.97;2.60;;;;;;;;;;5072277;28;20028;-84
2022/04/07 03:04:37;;;;;;;3.97;2.67;;;;;;;;;;5054397;28;20464;-82
2022/04/07 03:07:03;;;;;;;6.95;2.72;;;;;;;;;;5054090;28;20353;-83
2022/04/07 03:09:28;;;;;;;3.53;2.60;;;;;;;;;;5053721;28;20029;-83
2022/04/07 03:11:54;;;;;;;5.15;2.75;;;;;;;;;;5071560;28;20406;-85
2022/04/07 03:14:19;;;;;;;3.85;2.75;;;;;;;;;;5071630;28;20032;-85
2022/04/07 03:16:48;;;;;;;4.25;2.40;;;;;;;;;;5053957;28;20058;-83
2022/04/07 03:19:16;;;;;;;5.30;2.67;;;;;;;;;;5072239;28;20031;-83
2022/04/07 03:21:42;;;;;;;3.65;2.35;;;;;;;;;;5068837;28;20471;-83
2022/04/07 03:24:08;;;;;;;4.88;2.40;;;;;;;;;;5053857;28;20433;-84
2022/04/07 03:26:33;;;;;;;4.85;2.35;;;;;;;;;;5053567;28;20150;-83
2022/04/07 03:28:59;;;;;;;4.45;2.55;;;;;;;;;;5053722;28;20032;-84
2022/04/07 03:31:24;;;;;;;6.05;2.78;;;;;;;;;;5070213;28;20488;-84
2022/04/07 03:33:49;;;;;;;3.78;2.70;;;;;;;;;;5071683;28;20097;-84
2022/04/07 03:36:15;;;;;;;11.50;5.45;;;;;;;;;;5071702;28;20032;-83
2022/04/07 03:38:41;;;;;;;5.85;3.72;;;;;;;;;;5053870;28;20021;-83
2022/04/07 03:41:06;;;;;;;7.43;4.97;;;;;;;;;;5053328;28;20182;-84
2022/04/07 03:43:33;;;;;;;8.85;3.97;;;;;;;;;;5071647;28;20483;-84
2022/04/07 03:45:59;;;;;;;6.78;3.97;;;;;;;;;;5071650;28;20491;-83
2022/04/07 03:48:24;;;;;;;5.13;3.10;;;;;;;;;;5053298;28;20030;-84
2022/04/07 03:50:50;;;;;;;8.15;3.72;;;;;;;;;;5071016;28;20063;-84
2022/04/07 03:53:15;;;;;;;6.00;3.30;;;;;;;;;;5075428;28;20477;-82
2022/04/07 03:55:41;;;;;;;3.97;2.63;;;;;;;;;;5059554;28;20028;-83
2022/04/07 03:58:07;;;;;;;6.50;3.10;;;;;;;;;;5077693;28;20047;-84
2022/04/07 04:00:32;;;;;;;6.03;3.55;;;;;;;;;;5077831;28;20032;-82
2022/04/07 04:02:58;;;;;;;6.47;3.55;;;;;;;;;;5058360;28;20032;-82
2022/04/07 04:05:23;;;;;;;6.55;3.03;;;;;;;;;;5059768;28;20107;-83
2022/04/07 04:07:49;;;;;;;6.05;3.30;;;;;;;;;;5059912;28;20052;-84
2022/04/07 04:10:15;;;;;;;5.78;3.65;;;;;;;;;;5077359;28;20544;-82
2022/04/07 04:12:40;;;;;;;5.00;3.08;;;;;;;;;;5077607;28;20113;-83
2022/04/07 04:15:06;;;;;;;4.35;3.08;;;;;;;;;;5059509;28;20483;-82
2022/04/07 04:17:32;;;;;;;4.72;2.70;;;;;;;;;;5059635;28;20024;-83
2022/04/07 04:19:59;;;;;;;5.47;2.63;;;;;;;;;;5077695;28;20496;-84
2022/04/07 04:22:25;;;;;;;5.25;2.90;;;;;;;;;;5059648;28;20024;-84
2022/04/07 04:24:50;;;;;;;7.65;3.97;;;;;;;;;;5078155;28;20033;-85
2022/04/07 04:27:16;;;;;;;5.70;3.08;;;;;;;;;;5077593;28;20413;-84
2022/04/07 04:29:45;;;;;;;6.88;3.67;;;;;;;;;;5060357;28;20081;-85
2022/04/07 04:32:11;;;;;;;10.00;3.53;;;;;;;;;;5075603;28;20020;-83
2022/04/07 04:34:36;;;;;;;4.18;2.78;;;;;;;;;;5077875;28;20396;-85
2022/04/07 04:37:02;;;;;;;5.43;3.13;;;;;;;;;;5078132;28;20028;-85
2022/04/07 04:39:28;;;;;;;4.90;2.80;;;;;;;;;;5059989;28;20036;-84
2022/04/07 04:41:53;;;;;;;3.75;2.28;;;;;;;;;;5077582;28;20086;-83
2022/04/07 04:44:19;;;;;;;9.63;3.35;;;;;;;;;;5060546;28;20546;-84
2022/04/07 04:46:44;;;;;;;7.38;3.20;;;;;;;;;;5077311;28;20530;-84
2022/04/07 04:49:09;;;;;;;6.07;3.10;;;;;;;;;;5059185;28;20056;-85
2022/04/07 04:51:35;;;;;;;6.30;3.33;;;;;;;;;;5061711;28;20135;-85
2022/04/07 04:54:00;;;;;;;5.47;2.88;;;;;;;;;;5059787;28;20030;-85
2022/04/07 04:56:29;;;;;;;3.28;2.33;;;;;;;;;;5058741;28;20032;-84
2022/04/07 04:58:57;;;;;;;4.65;2.65;;;;;;;;;;5077366;28;20516;-84
2022/04/07 05:01:23;;;;;;;5.90;2.90;;;;;;;;;;5075266;28;20025;-83
2022/04/07 05:03:48;;;;;;;5.22;2.88;;;;;;;;;;5058857;28;20079;-84
2022/04/07 05:06:14;;;;;;;6.53;2.80;;;;;;;;;;5074299;28;20048;-84
2022/04/07 05:08:39;;;;;;;5.38;3.13;;;;;;;;;;5074560;28;20032;-84
2022/04/07 05:11:05;;;;;;;7.80;2.92;;;;;;;;;;5073606;28;20388;-84
2022/04/07 05:13:30;;;;;;;4.95;2.95;;;;;;;;;;5074310;28;20028;-85
2022/04/07 05:15:56;;;;;;;7.85;3.03;;;;;;;;;;5073617;28;20020;-85
2022/04/07 05:18:21;;;;;;;5.65;2.60;;;;;;;;;;5055623;28;20028;-86
2022/04/07 05:20:47;;;;;;;5.60;3.25;;;;;;;;;;5054133;28;20099;-84
2022/04/07 05:23:12;;;;;;;7.03;2.95;;;;;;;;;;5055351;28;20488;-85
2022/04/07 05:25:38;;;;;;;6.05;3.70;;;;;;;;;;5073028;28;20055;-84
2022/04/07 05:28:03;;;;;;;5.55;3.40;;;;;;;;;;5073280;28;20028;-84
2022/04/07 05:30:29;;;;;;;7.18;3.70;;;;;;;;;;5054965;28;20024;-86
2022/04/07 05:32:54;;;;;;;10.95;4.30;;;;;;;;;;5055843;28;20024;-85
2022/04/07 05:35:20;;;;;;;6.78;4.20;;;;;;;;;;5073742;28;20035;-86
2022/04/07 05:37:46;;;;;;;8.73;3.78;;;;;;;;;;5055644;28;20063;-85
2022/04/07 05:40:12;;;;;;;11.90;4.45;;;;;;;;;;5072610;28;20432;-86
2022/04/07 05:42:38;;;;;;;13.80;4.38;;;;;;;;;;5073251;28;20099;-86
2022/04/07 05:45:04;;;;;;;7.20;3.60;;;;;;;;;;5071665;28;20115;-87
2022/04/07 05:47:30;;;;;;;17.33;9.75;;;;;;;;;;5074121;28;20016;-85
2022/04/07 05:49:56;;;;;;;11.10;5.60;;;;;;;;;;5073780;28;20540;-86
2022/04/07 05:52:22;;;;;;;20.55;9.73;;;;;;;;;;5056086;28;20036;-85
2022/04/07 05:54:48;;;;;;;7.78;4.75;;;;;;;;;;5055957;28;20472;-85
2022/04/07 05:57:14;;;;;;;25.77;11.52;;;;;;;;;;5055919;28;20082;-87
2022/04/07 05:59:39;;;;;;;32.53;14.25;;;;;;;;;;5073433;28;20028;-86
2022/04/07 06:02:05;;;;;;;20.27;9.88;;;;;;;;;;5055601;28;20031;-84
2022/04/07 06:04:30;;;;;;;13.45;6.00;;;;;;;;;;5073926;28;20093;-86
2022/04/07 06:06:56;;;;;;;7.63;4.88;;;;;;;;;;5055826;28;20028;-86
2022/04/07 06:09:21;;;;;;;12.10;6.72;;;;;;;;;;5055468;28;20508;-85
2022/04/07 06:11:47;;;;;;;9.00;5.45;;;;;;;;;;5073591;28;20044;-86
2022/04/07 06:14:12;;;;;;;8.02;4.07;;;;;;;;;;5055320;28;20028;-85
2022/04/07 06:16:38;;;;;;;11.80;6.65;;;;;;;;;;5053760;28;20111;-86
2022/04/07 06:19:03;;;;;;;10.85;6.00;;;;;;;;;;5055296;28;20028;-86
2022/04/07 06:21:33;;;;;;;14.68;7.22;;;;;;;;;;5054784;28;20656;-85
2022/04/07 06:23:59;;;;;;;11.65;6.97;;;;;;;;;;5052253;28;20032;-83
2022/04/07 06:26:25;;;;;;;8.35;6.35;;;;;;;;;;5072413;28;20206;-84
2022/04/07 06:28:51;;;;;;;12.50;7.13;;;;;;;;;;5054406;28;20040;-85
2022/04/07 06:31:17;;;;;;;16.10;8.27;;;;;;;;;;5053989;28;20583;-85
2022/04/07 06:33:42;;;;;;;13.50;7.47;;;;;;;;;;5055243;28;20024;-83
2022/04/07 06:36:08;;;;;;;16.02;6.35;;;;;;;;;;5057272;28;20024;-82
2022/04/07 06:38:33;;;;;;;7.50;4.05;;;;;;;;;;5072553;28;20031;-83
2022/04/07 06:41:02;;;;;;;6.53;4.15;;;;;;;;;;5072397;28;20021;-82
2022/04/07 06:43:28;;;;;;;6.30;3.90;;;;;;;;;;5054567;28;20043;-84
2022/04/07 06:45:53;;;;;;;7.95;3.92;;;;;;;;;;5055066;28;20472;-84
2022/04/07 06:48:19;;;;;;;6.43;4.18;;;;;;;;;;5054177;28;20037;-84
2022/04/07 06:50:45;;;;;;;6.55;4.00;;;;;;;;;;5054423;28;20033;-86
2022/04/07 06:53:12;;;;;;;5.50;4.05;;;;;;;;;;5054773;28;20381;-86
2022/04/07 06:55:38;;;;;;;7.72;4.60;;;;;;;;;;5054475;28;20528;-87
2022/04/07 06:58:06;;;;;;;4.88;3.78;;;;;;;;;;5067710;28;20029;-88
2022/04/07 07:00:33;;;;;;;5.43;3.58;;;;;;;;;;5054534;28;20028;-86
2022/04/07 07:03:01;;;;;;;5.95;4.10;;;;;;;;;;5054302;28;20059;-87
2022/04/07 07:05:32;;;;;;;8.05;5.03;;;;;;;;;;5054681;28;20364;-88
2022/04/07 07:08:12;;;;;;;8.20;5.97;;;;;;;;;;5072424;28;20185;-87
2022/04/07 07:10:38;;;;;;;9.38;7.10;;;;;;;;;;5053416;28;20044;-86
2022/04/07 07:13:03;;;;;;;6.75;3.92;;;;;;;;;;5053976;28;20070;-85
2022/04/07 07:15:28;;;;;;;8.90;4.53;;;;;;;;;;5054274;28;20165;-87
2022/04/07 07:17:54;;;;;;;10.60;4.70;;;;;;;;;;5072085;28;20070;-87
2022/04/07 07:20:19;;;;;;;8.45;5.10;;;;;;;;;;5054498;28;20028;-88
2022/04/07 07:22:45;;;;;;;7.40;4.20;;;;;;;;;;5071910;28;20047;-88
2022/04/07 07:25:11;;;;;;;6.90;4.25;;;;;;;;;;5071870;28;20046;-86
2022/04/07 07:27:38;;;;;;;7.05;4.22;;;;;;;;;;5053735;28;20484;-87
2022/04/07 07:30:08;;;;;;;8.32;3.92;;;;;;;;;;5071468;28;20028;-86
2022/04/07 07:32:34;;;;;;;5.90;3.60;;;;;;;;;;5054175;28;20044;-89
2022/04/07 07:34:59;;;;;;;4.72;3.60;;;;;;;;;;5054258;28;20047;-89
2022/04/07 07:37:24;;;;;;;9.77;3.60;;;;;;;;;;5053661;28;20033;-89
2022/04/07 07:39:50;;;;;;;6.70;3.60;;;;;;;;;;5054186;28;20025;-87
2022/04/07 07:42:16;;;;;;;6.82;4.15;;;;;;;;;;5054609;28;20028;-89
2022/04/07 07:44:41;;;;;;;9.32;4.20;;;;;;;;;;5056120;28;20031;-87
2022/04/07 07:47:07;;;;;;;7.90;4.07;;;;;;;;;;5055228;28;20032;-86
2022/04/07 07:49:32;;;;;;;8.23;4.75;;;;;;;;;;5053826;28;20025;-88
2022/04/07 07:51:58;;;;;;;28.65;13.45;;;;;;;;;;5071547;28;20074;-89
2022/04/07 07:54:23;;;;;;;17.38;10.63;;;;;;;;;;5053556;28;20025;-86
2022/04/07 07:56:49;;;;;;;24.08;12.75;;;;;;;;;;5053571;28;20103;-88
2022/04/07 07:59:15;;;;;;;12.13;6.28;;;;;;;;;;5053792;28;20035;-88
2022/04/07 08:01:43;;;;;;;24.05;12.30;;;;;;;;;;5053588;28;20029;-87
2022/04/07 08:04:09;;;;;;;8.52;5.47;;;;;;;;;;5072070;28;20028;-88
2022/04/07 08:06:34;;;;;;;8.90;5.50;;;;;;;;;;5072088;28;20417;-87
2022/04/07 08:09:00;;;;;;;6.50;4.45;;;;;;;;;;5072372;28;20029;-86
2022/04/07 08:11:25;;;;;;;8.88;4.93;;;;;;;;;;5053117;28;20484;-86
2022/04/07 08:13:51;;;;;;;7.45;5.45;;;;;;;;;;5053331;28;20036;-86
2022/04/07 08:16:16;;;;;;;11.05;7.43;;;;;;;;;;5053626;28;20111;-85
2022/04/07 08:18:41;;;;;;;15.82;9.18;;;;;;;;;;5071028;28;20024;-87
2022/04/07 08:21:07;;;;;;;11.98;6.38;;;;;;;;;;5053537;28;20508;-87
2022/04/07 08:23:32;;;;;;;8.02;5.07;;;;;;;;;;5053129;28;20016;-87
2022/04/07 08:25:58;;;;;;;8.40;4.32;;;;;;;;;;5053125;28;20016;-86
2022/04/07 08:28:23;;;;;;;5.65;4.32;;;;;;;;;;5068743;28;20037;-83
2022/04/07 08:30:49;;;;;;;16.10;8.77;;;;;;;;;;5050287;28;20029;-87
2022/04/07 08:33:14;;;;;;;27.63;13.27;;;;;;;;;;5070975;28;20416;-85
2022/04/07 08:35:39;;;;;;;54.35;27.88;;;;;;;;;;5072366;28;20070;-88
2022/04/07 08:38:14;;;;;;;19.13;9.90;;;;;;;;;;5053500;28;20024;-86
2022/04/07 08:40:41;;;;;;;25.83;11.73;;;;;;;;;;5054220;28;20106;-86
2022/04/07 08:43:08;;;;;;;31.88;17.70;;;;;;;;;;5055796;28;20145;-88
2022/04/07 08:45:36;;;;;;;10.82;4.85;;;;;;;;;;5057169;28;20111;-87
2022/04/07 08:48:02;;;;;;;12.63;6.15;;;;;;;;;;5074790;28;20028;-84
2022/04/07 08:50:33;;;;;;;12.98;7.53;;;;;;;;;;5055527;28;20060;-89
2022/04/07 08:52:59;;;;;;;66.18;30.25;;;;;;;;;;5052611;28;20028;-87
2022/04/07 08:55:24;;;;;;;22.50;12.07;;;;;;;;;;5056797;28;20089;-86
2022/04/07 08:57:50;;;;;;;9.80;4.75;;;;;;;;;;5074482;28;20025;-87
2022/04/07 09:00:16;;;;;;;8.05;4.55;;;;;;;;;;5056358;28;20380;-86
2022/04/07 09:02:54;;;;;;;8.07;5.30;;;;;;;;;;5056502;28;20056;-86
2022/04/07 09:05:25;;;;;;;7.78;5.03;;;;;;;;;;5074188;28;20021;-84
2022/04/07 09:07:55;;;;;;;8.48;4.70;;;;;;;;;;5056594;28;20031;-88
2022/04/07 09:10:22;;;;;;;;;;;;;;;;;;5074549;28;20048;-85
2022/04/07 09:12:48;;;;;;;10.52;5.32;;;;;;;;;;5074584;28;19916;-87
2022/04/07 09:15:14;;;;;;;9.32;5.40;;;;;;;;;;5056247;28;20028;-87
2022/04/07 09:17:54;;;;;;;6.80;4.22;;;;;;;;;;5074242;28;20384;-88
2022/04/07 09:20:21;;;;;;;7.68;4.90;;;;;;;;;;5074312;28;20020;-85
2022/04/07 09:22:59;;;;;;;10.05;4.80;;;;;;;;;;5056334;28;20089;-86
2022/04/07 09:25:26;;;;;;;7.75;4.75;;;;;;;;;;5073986;28;20024;-87
2022/04/07 09:27:53;;;;;;;6.88;4.78;;;;;;;;;;5074453;28;20408;-86
2022/04/07 09:30:20;;;;;;;11.02;5.57;;;;;;;;;;5074892;28;20028;-87
2022/04/07 09:32:46;;;;;;;17.40;5.90;;;;;;;;;;5056106;28;20031;-83
2022/04/07 09:35:13;;;;;;;7.53;4.78;;;;;;;;;;5056160;28;20123;-88
2022/04/07 09:37:43;;;;;;;8.55;4.78;;;;;;;;;;5056398;28;20017;-88
2022/04/07 09:40:16;;;;;;;8.48;4.90;;;;;;;;;;5073879;28;20038;-85
2022/04/07 09:42:42;;;;;;;8.05;5.25;;;;;;;;;;5070578;28;20037;-88
2022/04/07 09:45:13;;;;;;;7.22;4.57;;;;;;;;;;5056460;28;20544;-84
2022/04/07 09:47:44;;;;;;;10.07;5.47;;;;;;;;;;5055174;28;20047;-87
2022/04/07 09:50:31;;;;;;;8.93;5.07;;;;;;;;;;5055435;28;20024;-88
2022/04/07 09:53:05;;;;;;;11.77;5.82;;;;;;;;;;5055502;28;20028;-87
2022/04/07 09:55:42;;;;;;;11.65;4.85;;;;;;;;;;5073690;28;20468;-86
2022/04/07 09:58:10;;;;;;;10.18;6.25;;;;;;;;;;5050502;28;20687;-83
2022/04/07 10:00:36;;;;;;;10.57;5.53;;;;;;;;;;5055507;28;20496;-85
2022/04/07 10:03:04;;;;;;;10.70;7.78;;;;;;;;;;5055338;28;20036;-87
2022/04/07 10:05:30;;;;;;;16.02;5.80;;;;;;;;;;5072775;28;20025;-86
2022/04/07 10:08:02;;;;;;;12.85;5.63;;;;;;;;;;5073231;28;20036;-84
2022/04/07 10:10:28;;;;;;;7.68;4.97;;;;;;;;;;5072244;28;20117;-85
2022/04/07 10:12:57;;;;;;;10.25;4.40;;;;;;;;;;5055481;28;20054;-83
2022/04/07 10:15:23;;;;;;;13.10;4.80;;;;;;;;;;5073074;28;20055;-82
2022/04/07 10:17:48;;;;;;;7.85;3.78;;;;;;;;;;5054768;28;20059;-83
2022/04/07 10:20:19;;;;;;;6.60;3.67;;;;;;;;;;5072756;28;20119;-86
2022/04/07 10:23:10;;;;;;;8.32;4.55;;;;;;;;;;5071314;28;20032;-84
2022/04/07 10:25:39;;;;;;;6.07;2.80;;;;;;;;;;5057375;28;20413;-83
2022/04/07 10:28:07;;;;;;;11.50;4.82;;;;;;;;;;5054748;28;20028;-85
2022/04/07 10:30:47;;;;;;;11.65;5.95;;;;;;;;;;5054132;28;20051;-82
2022/04/07 10:33:30;;;;;;;;;;;;;;;;;;5073006;28;20043;-82
2022/04/07 10:35:56;;;;;;;9.88;5.38;;;;;;;;;;5053868;28;19916;-84
2022/04/07 10:38:43;;;;;;;12.13;5.82;;;;;;;;;;5072546;28;20086;-82
2022/04/07 10:41:09;;;;;;;8.27;4.70;;;;;;;;;;5069884;28;20431;-83
2022/04/07 10:43:38;;;;;;;12.82;4.50;;;;;;;;;;5054289;28;20444;-84
2022/04/07 10:46:06;;;;;;;10.95;4.85;;;;;;;;;;5071900;28;20131;-84
2022/04/07 10:48:38;;;;;;;11.05;6.60;;;;;;;;;;5072229;28;20043;-83
2022/04/07 10:51:08;;;;;;;14.38;9.15;;;;;;;;;;5072468;28;20021;-82
2022/04/07 10:53:47;;;;;;;30.25;15.32;;;;;;;;;;5054390;28;20434;-84
2022/04/07 10:56:32;;;;;;;15.18;9.73;;;;;;;;;;5070974;28;20028;-84
2022/04/07 10:59:14;;;;;;;21.58;11.95;;;;;;;;;;5053903;28;20108;-81
2022/04/07 11:01:39;;;;;;;19.63;12.02;;;;;;;;;;5067830;28;20024;-84
2022/04/07 11:04:23;;;;;;;15.43;10.95;;;;;;;;;;5071411;28;20435;-84
2022/04/07 11:07:19;;;;;;;30.70;18.17;;;;;;;;;;5071407;28;20028;-83
2022/04/07 11:10:03;;;;;;;16.50;11.77;;;;;;;;;;5071170;28;20540;-86
2022/04/07 11:12:59;;;;;;;18.73;11.70;;;;;;;;;;5053391;28;20028;-83
2022/04/07 11:15:49;;;;;;;23.02;14.80;;;;;;;;;;5071615;28;20048;-83
2022/04/07 11:18:44;;;;;;;18.02;11.65;;;;;;;;;;5053262;28;20044;-84
2022/04/07 11:21:11;;;;;;;44.10;24.52;;;;;;;;;;5071520;28;20403;-84
2022/04/07 11:23:41;;;;;;;23.45;14.20;;;;;;;;;;5053562;28;20025;-84
2022/04/07 11:26:10;;;;;;;;;;;;;;;;;;5072217;28;20082;-84
2022/04/07 11:28:37;;;;;;;18.83;12.95;;;;;;;;;;5071369;28;20395;-85
2022/04/07 11:31:07;;;;;;;18.23;12.80;;;;;;;;;;5053591;28;20082;-82
2022/04/07 11:33:36;;;;;;;15.55;11.73;;;;;;;;;;5070993;28;20047;-84
2022/04/07 11:36:04;;;;;;;20.05;12.63;;;;;;;;;;5071278;28;20146;-82
2022/04/07 11:38:54;;;;;;;14.32;10.68;;;;;;;;;;5053413;28;20142;-84
2022/04/07 11:41:20;;;;;;;14.38;10.40;;;;;;;;;;5053292;28;20384;-85
2022/04/07 11:43:48;;;;;;;16.65;10.88;;;;;;;;;;5071585;28;20028;-83
2022/04/07 11:46:16;;;;;;;17.63;9.70;;;;;;;;;;5071187;28;20094;-85
2022/04/07 11:48:41;;;;;;;17.92;10.25;;;;;;;;;;5071210;28;20183;-85
2022/04/07 11:51:12;;;;;;;13.65;9.30;;;;;;;;;;5070881;28;20104;-84
2022/04/07 11:53:57;;;;;;;13.55;9.55;;;;;;;;;;5052852;28;20101;-85
2022/04/07 11:56:34;;;;;;;16.48;10.48;;;;;;;;;;5071157;28;20385;-84
2022/04/07 11:59:01;;;;;;;24.60;13.15;;;;;;;;;;5051874;28;20452;-85
2022/04/07 12:01:28;;;;;;;14.27;11.10;;;;;;;;;;5053298;28;20469;-84
2022/04/07 12:04:02;;;;;;;16.02;10.02;;;;;;;;;;5052781;28;20067;-83
2022/04/07 12:06:29;;;;;;;16.98;9.77;;;;;;;;;;5071051;28;20530;-84
2022/04/07 12:08:55;;;;;;;15.40;9.93;;;;;;;;;;5071231;28;20025;-82
2022/04/07 12:11:23;;;;;;;13.20;9.02;;;;;;;;;;5052768;28;20129;-83
2022/04/07 12:13:53;;;;;;;13.95;8.82;;;;;;;;;;5071003;28;20020;-85
2022/04/07 12:16:25;;;;;;;14.70;8.57;;;;;;;;;;5074751;28;20369;-85
2022/04/07 12:18:54;;;;;;;13.88;7.72;;;;;;;;;;5055891;28;20032;-83
2022/04/07 12:21:20;;;;;;;13.32;8.70;;;;;;;;;;5057036;28;20025;-84
2022/04/07 12:23:47;;;;;;;14.32;8.82;;;;;;;;;;5056789;28;20497;-85
2022/04/07 12:26:13;;;;;;;15.60;8.82;;;;;;;;;;5074742;28;20024;-83
2022/04/07 12:28:39;;;;;;;15.05;8.10;;;;;;;;;;5074661;28;20461;-83
2022/04/07 12:31:21;;;;;;;10.75;7.35;;;;;;;;;;5056497;28;20496;-83
2022/04/07 12:33:49;;;;;;;13.88;7.95;;;;;;;;;;5056475;28;20051;-84
2022/04/07 12:36:30;;;;;;;9.77;6.90;;;;;;;;;;5074691;28;20032;-85
2022/04/07 12:38:59;;;;;;;9.95;6.50;;;;;;;;;;5074317;28;20403;-84
2022/04/07 12:41:38;;;;;;;10.70;6.78;;;;;;;;;;5074519;28;20027;-84
2022/04/07 12:44:10;;;;;;;8.07;5.65;;;;;;;;;;5074774;28;20056;-85
2022/04/07 12:47:13;;;;;;;12.32;6.15;;;;;;;;;;5074624;28;20024;-84
2022/04/07 12:49:40;;;;;;;9.43;5.45;;;;;;;;;;5056142;28;20036;-85
2022/04/07 12:52:14;;;;;;;12.07;6.32;;;;;;;;;;5056655;28;20036;-85
2022/04/07 12:55:01;;;;;;;10.68;6.22;;;;;;;;;;5055814;28;20024;-85
2022/04/07 12:57:34;;;;;;;9.23;5.38;;;;;;;;;;5089261;28;20040;-85
2022/04/07 13:00:07;;;;;;;10.63;6.15;;;;;;;;;;5074253;28;20111;-87
2022/04/07 13:02:50;;;;;;;12.00;6.30;;;;;;;;;;5074153;28;20596;-84
2022/04/07 13:05:35;;;;;;;9.90;5.80;;;;;;;;;;5074567;28;20032;-86
2022/04/07 13:08:05;;;;;;;10.85;5.88;;;;;;;;;;5073259;28;20384;-84
2022/04/07 13:10:31;;;;;;;12.68;6.55;;;;;;;;;;5055883;28;20044;-86
2022/04/07 13:12:57;;;;;;;11.40;6.68;;;;;;;;;;5056165;28;20691;-87
2022/04/07 13:15:24;;;;;;;8.98;6.63;;;;;;;;;;5056112;28;20074;-86
2022/04/07 13:17:49;;;;;;;13.30;6.70;;;;;;;;;;5073816;28;20028;-86
2022/04/07 13:20:16;;;;;;;11.50;7.07;;;;;;;;;;5055975;28;20032;-84
2022/04/07 13:22:42;;;;;;;10.48;6.65;;;;;;;;;;5056054;28;20116;-86
2022/04/07 13:25:08;;;;;;;13.75;7.63;;;;;;;;;;5055126;28;20111;-84
2022/04/07 13:27:33;;;;;;;14.30;7.68;;;;;;;;;;5056412;28;20449;-87
2022/04/07 13:29:59;;;;;;;9.55;6.90;;;;;;;;;;5056063;28;20030;-87
2022/04/07 13:32:25;;;;;;;11.00;6.95;;;;;;;;;;5055618;28;20070;-87
2022/04/07 13:34:51;;;;;;;16.10;7.53;;;;;;;;;;5074127;28;20477;-86
2022/04/07 13:37:17;;;;;;;10.95;6.47;;;;;;;;;;5074287;28;20085;-84
2022/04/07 13:39:43;;;;;;;15.27;9.65;;;;;;;;;;5058555;28;20045;-84
2022/04/07 13:42:08;;;;;;;17.10;7.28;;;;;;;;;;5073512;28;20025;-86
2022/04/07 13:44:35;;;;;;;18.45;8.85;;;;;;;;;;5055857;28;20425;-88
2022/04/07 13:47:01;;;;;;;33.72;17.40;;;;;;;;;;5072709;28;20023;-85
2022/04/07 13:49:26;;;;;;;18.90;10.65;;;;;;;;;;5070359;28;20016;-85
2022/04/07 13:51:55;;;;;;;19.05;9.90;;;;;;;;;;5055556;28;20025;-86
2022/04/07 13:54:21;;;;;;;24.95;13.23;;;;;;;;;;5055772;28;20393;-87
2022/04/07 13:56:47;;;;;;;16.25;10.60;;;;;;;;;;5055331;28;20101;-84
2022/04/07 13:59:12;;;;;;;19.27;12.43;;;;;;;;;;5073396;28;20154;-84
2022/04/07 14:01:38;;;;;;;23.35;13.45;;;;;;;;;;5054601;28;20077;-84
2022/04/07 14:04:03;;;;;;;29.25;15.43;;;;;;;;;;5072805;28;20360;-87
2022/04/07 14:06:29;;;;;;;21.30;13.55;;;;;;;;;;5055343;28;20385;-86
2022/04/07 14:08:55;;;;;;;29.42;18.90;;;;;;;;;;5073075;28;20027;-88
2022/04/07 14:11:21;;;;;;;24.25;15.27;;;;;;;;;;5072863;28;20874;-86
2022/04/07 14:13:46;;;;;;;24.05;14.75;;;;;;;;;;5055194;28;20031;-83
2022/04/07 14:16:12;;;;;;;25.55;17.90;;;;;;;;;;5055121;28;20101;-87
2022/04/07 14:18:38;;;;;;;18.92;13.15;;;;;;;;;;5054758;28;20040;-85
2022/04/07 14:21:05;;;;;;;17.83;12.40;;;;;;;;;;5054966;28;20028;-84
2022/04/07 14:23:31;;;;;;;28.05;16.48;;;;;;;;;;5072674;28;20115;-83
2022/04/07 14:25:57;;;;;;;34.67;20.13;;;;;;;;;;5073332;28;20059;-85
2022/04/07 14:28:22;;;;;;;16.85;10.60;;;;;;;;;;5055031;28;20405;-86
2022/04/07 14:30:51;;;;;;;14.65;8.85;;;;;;;;;;5072533;28;20384;-85
2022/04/07 14:33:20;;;;;;;20.60;10.77;;;;;;;;;;5056015;28;20028;-86
2022/04/07 14:35:47;;;;;;;13.23;9.13;;;;;;;;;;5053848;28;20515;-83
2022/04/07 14:38:13;;;;;;;18.20;8.75;;;;;;;;;;5071737;28;20672;-88
2022/04/07 14:40:41;;;;;;;13.30;8.48;;;;;;;;;;5072215;28;20028;-85